sensor_id;sensor_type;location;lat;lon;timestamp;temperature;humidity
46482;DHT22;32193;51.446;6.792;2022-08-19T00:00:13;20.70;99.90
46482;DHT22;32193;51.446;6.792;2022-08-19T00:02:40;20.70;99.90
46482;DHT22;32193;51.446;6.792;2022-08-19T00:05:07;20.70;99.90
46482;DHT22;32193;51.446;6.792;2022-08-19T00:07:33;20.70;99.90
46482;DHT22;32193;51.446;6.792;2022-08-19T00:09:58;20.60;99.90
46482;DHT22;32193;51.446;6.792;2022-08-19T00:12:24;20.60;99.90
46482;DHT22;32193;51.446;6.792;2022-08-19T00:14:50;20.50;99.90
46482;DHT22;32193;51.446;6.792;2022-08-19T00:17:16;20.60;99.90
46482;DHT22;32193;51.446;6.792;2022-08-19T00:19:41;20.50;99.90
46482;DHT22;32193;51.446;6.792;2022-08-19T00:22:07;20.60;99.90
46482;DHT22;32193;51.446;6.792;2022-08-19T00:24:34;20.60;99.90
46482;DHT22;32193;51.446;6.792;2022-08-19T00:27:00;20.50;99.90
46482;DHT22;32193;51.446;6.792;2022-08-19T00:29:27;20.50;99.90
46482;DHT22;32193;51.446;6.792;2022-08-19T00:31:53;20.50;99.90
46482;DHT22;32193;51.446;6.792;2022-08-19T00:34:20;20.50;99.90
46482;DHT22;32193;51.446;6.792;2022-08-19T00:36:47;20.50;99.90
46482;DHT22;32193;51.446;6.792;2022-08-19T00:39:14;20.40;99.90
46482;DHT22;32193;51.446;6.792;2022-08-19T00:41:42;20.30;99.90
46482;DHT22;32193;51.446;6.792;2022-08-19T00:44:12;20.30;99.90
46482;DHT22;32193;51.446;6.792;2022-08-19T00:46:43;20.30;99.90
46482;DHT22;32193;51.446;6.792;2022-08-19T00:49:16;20.20;99.90
46482;DHT22;32193;51.446;6.792;2022-08-19T00:51:45;20.20;99.90
46482;DHT22;32193;51.446;6.792;2022-08-19T00:54:12;20.10;99.90
46482;DHT22;32193;51.446;6.792;2022-08-19T00:56:38;20.10;99.90
46482;DHT22;32193;51.446;6.792;2022-08-19T00:59:04;20.10;99.90
46482;DHT22;32193;51.446;6.792;2022-08-19T01:01:38;20.10;99.90
46482;DHT22;32193;51.446;6.792;2022-08-19T01:04:05;20.10;99.90
46482;DHT22;32193;51.446;6.792;2022-08-19T01:06:31;20.10;99.90
46482;DHT22;32193;51.446;6.792;2022-08-19T01:08:59;20.00;99.90
46482;DHT22;32193;51.446;6.792;2022-08-19T01:11:30;20.00;99.90
46482;DHT22;32193;51.446;6.792;2022-08-19T01:13:56;20.00;99.90
46482;DHT22;32193;51.446;6.792;2022-08-19T01:16:24;20.00;99.90
46482;DHT22;32193;51.446;6.792;2022-08-19T01:18:50;19.90;99.90
46482;DHT22;32193;51.446;6.792;2022-08-19T01:21:32;19.90;99.90
46482;DHT22;32193;51.446;6.792;2022-08-19T01:23:59;19.80;99.90
46482;DHT22;32193;51.446;6.792;2022-08-19T01:26:26;19.90;99.90
46482;DHT22;32193;51.446;6.792;2022-08-19T01:28:55;19.80;99.90
46482;DHT22;32193;51.446;6.792;2022-08-19T01:31:24;19.80;99.90
46482;DHT22;32193;51.446;6.792;2022-08-19T01:33:52;19.80;99.90
46482;DHT22;32193;51.446;6.792;2022-08-19T01:36:34;19.70;99.90
46482;DHT22;32193;51.446;6.792;2022-08-19T01:39:05;19.80;99.90
46482;DHT22;32193;51.446;6.792;2022-08-19T01:41:32;19.70;99.90
46482;DHT22;32193;51.446;6.792;2022-08-19T01:43:57;19.70;99.90
46482;DHT22;32193;51.446;6.792;2022-08-19T01:46:24;19.70;99.90
46482;DHT22;32193;51.446;6.792;2022-08-19T01:48:50;19.70;99.90
46482;DHT22;32193;51.446;6.792;2022-08-19T01:51:15;19.70;99.90
46482;DHT22;32193;51.446;6.792;2022-08-19T01:53:41;19.70;99.90
46482;DHT22;32193;51.446;6.792;2022-08-19T01:56:07;19.80;99.90
46482;DHT22;32193;51.446;6.792;2022-08-19T01:58:41;19.80;99.90
46482;DHT22;32193;51.446;6.792;2022-08-19T02:01:08;19.80;99.90
46482;DHT22;32193;51.446;6.792;2022-08-19T02:03:34;19.70;99.90
46482;DHT22;32193;51.446;6.792;2022-08-19T02:06:03;19.70;99.90
46482;DHT22;32193;51.446;6.792;2022-08-19T02:08:32;19.60;99.90
46482;DHT22;32193;51.446;6.792;2022-08-19T02:10:58;19.60;99.90
46482;DHT22;32193;51.446;6.792;2022-08-19T02:13:25;19.60;99.90
46482;DHT22;32193;51.446;6.792;2022-08-19T02:15:51;19.60;99.90
46482;DHT22;32193;51.446;6.792;2022-08-19T02:18:16;19.70;99.90
46482;DHT22;32193;51.446;6.792;2022-08-19T02:20:43;19.70;99.90
46482;DHT22;32193;51.446;6.792;2022-08-19T02:23:11;19.70;99.90
46482;DHT22;32193;51.446;6.792;2022-08-19T02:25:37;19.70;99.90
46482;DHT22;32193;51.446;6.792;2022-08-19T02:28:03;19.70;99.90
46482;DHT22;32193;51.446;6.792;2022-08-19T02:30:29;19.70;99.90
46482;DHT22;32193;51.446;6.792;2022-08-19T02:32:55;19.70;99.90
46482;DHT22;32193;51.446;6.792;2022-08-19T02:35:21;19.70;99.90
46482;DHT22;32193;51.446;6.792;2022-08-19T02:37:47;19.60;99.90
46482;DHT22;32193;51.446;6.792;2022-08-19T02:40:32;19.60;99.90
46482;DHT22;32193;51.446;6.792;2022-08-19T02:43:02;19.50;99.90
46482;DHT22;32193;51.446;6.792;2022-08-19T02:45:33;19.50;99.90
46482;DHT22;32193;51.446;6.792;2022-08-19T02:47:58;19.40;99.90
46482;DHT22;32193;51.446;6.792;2022-08-19T02:50:24;19.40;99.90
46482;DHT22;32193;51.446;6.792;2022-08-19T02:52:50;19.40;99.90
46482;DHT22;32193;51.446;6.792;2022-08-19T02:55:15;19.40;99.90
46482;DHT22;32193;51.446;6.792;2022-08-19T02:57:41;19.40;99.90
46482;DHT22;32193;51.446;6.792;2022-08-19T03:00:08;19.40;99.90
46482;DHT22;32193;51.446;6.792;2022-08-19T03:02:37;19.40;99.90
46482;DHT22;32193;51.446;6.792;2022-08-19T03:05:03;19.40;99.90
46482;DHT22;32193;51.446;6.792;2022-08-19T03:07:29;19.40;99.90
46482;DHT22;32193;51.446;6.792;2022-08-19T03:09:55;19.40;99.90
46482;DHT22;32193;51.446;6.792;2022-08-19T03:12:21;19.40;99.90
46482;DHT22;32193;51.446;6.792;2022-08-19T03:14:47;19.40;99.90
46482;DHT22;32193;51.446;6.792;2022-08-19T03:17:12;19.40;99.90
46482;DHT22;32193;51.446;6.792;2022-08-19T03:19:38;19.50;99.90
46482;DHT22;32193;51.446;6.792;2022-08-19T03:22:04;19.50;99.90
46482;DHT22;32193;51.446;6.792;2022-08-19T03:24:30;19.60;99.90
46482;DHT22;32193;51.446;6.792;2022-08-19T03:26:57;19.50;99.90
46482;DHT22;32193;51.446;6.792;2022-08-19T03:29:26;19.40;99.90
46482;DHT22;32193;51.446;6.792;2022-08-19T03:31:52;19.40;99.90
46482;DHT22;32193;51.446;6.792;2022-08-19T03:34:29;19.40;99.90
46482;DHT22;32193;51.446;6.792;2022-08-19T03:36:57;19.40;99.90
46482;DHT22;32193;51.446;6.792;2022-08-19T03:39:24;19.40;99.90
46482;DHT22;32193;51.446;6.792;2022-08-19T03:41:53;19.40;99.90
46482;DHT22;32193;51.446;6.792;2022-08-19T03:44:22;19.40;99.90
46482;DHT22;32193;51.446;6.792;2022-08-19T03:46:56;19.40;99.90
46482;DHT22;32193;51.446;6.792;2022-08-19T03:49:24;19.50;99.90
46482;DHT22;32193;51.446;6.792;2022-08-19T03:51:50;19.40;99.90
46482;DHT22;32193;51.446;6.792;2022-08-19T03:54:19;19.40;99.90
46482;DHT22;32193;51.446;6.792;2022-08-19T03:56:46;19.40;99.90
46482;DHT22;32193;51.446;6.792;2022-08-19T03:59:17;19.40;99.90
46482;DHT22;32193;51.446;6.792;2022-08-19T04:01:43;19.40;99.90
46482;DHT22;32193;51.446;6.792;2022-08-19T04:04:09;19.50;99.90
46482;DHT22;32193;51.446;6.792;2022-08-19T04:06:37;19.40;99.90
46482;DHT22;32193;51.446;6.792;2022-08-19T04:09:05;19.30;99.90
46482;DHT22;32193;51.446;6.792;2022-08-19T04:11:35;19.30;99.90
46482;DHT22;32193;51.446;6.792;2022-08-19T04:14:01;19.30;99.90
46482;DHT22;32193;51.446;6.792;2022-08-19T04:16:27;19.20;99.90
46482;DHT22;32193;51.446;6.792;2022-08-19T04:19:00;19.30;99.90
46482;DHT22;32193;51.446;6.792;2022-08-19T04:21:27;19.20;99.90
46482;DHT22;32193;51.446;6.792;2022-08-19T04:23:54;19.10;99.90
46482;DHT22;32193;51.446;6.792;2022-08-19T04:26:26;19.10;99.90
46482;DHT22;32193;51.446;6.792;2022-08-19T04:28:53;19.10;99.90
46482;DHT22;32193;51.446;6.792;2022-08-19T04:31:22;19.10;99.90
46482;DHT22;32193;51.446;6.792;2022-08-19T04:33:55;19.10;99.90
46482;DHT22;32193;51.446;6.792;2022-08-19T04:36:25;19.10;99.90
46482;DHT22;32193;51.446;6.792;2022-08-19T04:38:54;19.10;99.90
46482;DHT22;32193;51.446;6.792;2022-08-19T04:41:21;19.20;99.90
46482;DHT22;32193;51.446;6.792;2022-08-19T04:44:06;19.30;99.90
46482;DHT22;32193;51.446;6.792;2022-08-19T04:46:32;19.20;99.90
46482;DHT22;32193;51.446;6.792;2022-08-19T04:48:59;19.20;99.90
46482;DHT22;32193;51.446;6.792;2022-08-19T04:51:25;19.30;99.90
46482;DHT22;32193;51.446;6.792;2022-08-19T04:53:51;19.20;99.90
46482;DHT22;32193;51.446;6.792;2022-08-19T04:56:19;19.30;99.90
46482;DHT22;32193;51.446;6.792;2022-08-19T04:58:52;19.30;99.90
46482;DHT22;32193;51.446;6.792;2022-08-19T05:01:22;19.50;99.90
46482;DHT22;32193;51.446;6.792;2022-08-19T05:03:49;19.50;99.90
46482;DHT22;32193;51.446;6.792;2022-08-19T05:06:16;19.60;99.90
46482;DHT22;32193;51.446;6.792;2022-08-19T05:08:43;19.60;99.90
46482;DHT22;32193;51.446;6.792;2022-08-19T05:11:14;19.60;99.90
46482;DHT22;32193;51.446;6.792;2022-08-19T05:13:40;19.70;99.90
46482;DHT22;32193;51.446;6.792;2022-08-19T05:16:06;19.70;99.90
46482;DHT22;32193;51.446;6.792;2022-08-19T05:18:32;19.70;99.90
46482;DHT22;32193;51.446;6.792;2022-08-19T05:21:18;19.70;99.90
46482;DHT22;32193;51.446;6.792;2022-08-19T05:24:03;19.60;99.90
46482;DHT22;32193;51.446;6.792;2022-08-19T05:26:28;19.80;99.90
46482;DHT22;32193;51.446;6.792;2022-08-19T05:28:54;19.80;99.90
46482;DHT22;32193;51.446;6.792;2022-08-19T05:31:20;20.00;99.90
46482;DHT22;32193;51.446;6.792;2022-08-19T05:33:46;19.80;99.90
46482;DHT22;32193;51.446;6.792;2022-08-19T05:36:12;20.00;99.90
46482;DHT22;32193;51.446;6.792;2022-08-19T05:38:39;20.10;99.90
46482;DHT22;32193;51.446;6.792;2022-08-19T05:41:12;20.30;99.90
46482;DHT22;32193;51.446;6.792;2022-08-19T05:43:38;20.30;99.90
46482;DHT22;32193;51.446;6.792;2022-08-19T05:46:06;20.50;99.90
46482;DHT22;32193;51.446;6.792;2022-08-19T05:48:35;20.70;99.90
46482;DHT22;32193;51.446;6.792;2022-08-19T05:51:07;21.00;99.90
46482;DHT22;32193;51.446;6.792;2022-08-19T05:53:34;21.20;99.90
46482;DHT22;32193;51.446;6.792;2022-08-19T05:56:12;21.10;99.90
46482;DHT22;32193;51.446;6.792;2022-08-19T05:58:39;21.10;99.90
46482;DHT22;32193;51.446;6.792;2022-08-19T06:01:11;21.20;99.90
46482;DHT22;32193;51.446;6.792;2022-08-19T06:03:37;21.30;99.90
46482;DHT22;32193;51.446;6.792;2022-08-19T06:06:04;21.40;99.90
46482;DHT22;32193;51.446;6.792;2022-08-19T06:08:31;21.40;99.90
46482;DHT22;32193;51.446;6.792;2022-08-19T06:10:57;21.40;99.90
46482;DHT22;32193;51.446;6.792;2022-08-19T06:13:22;21.50;99.90
46482;DHT22;32193;51.446;6.792;2022-08-19T06:15:49;21.50;99.90
46482;DHT22;32193;51.446;6.792;2022-08-19T06:18:15;21.50;99.90
46482;DHT22;32193;51.446;6.792;2022-08-19T06:20:42;21.60;99.90
46482;DHT22;32193;51.446;6.792;2022-08-19T06:23:08;22.00;99.90
46482;DHT22;32193;51.446;6.792;2022-08-19T06:25:34;22.20;99.90
46482;DHT22;32193;51.446;6.792;2022-08-19T06:28:00;22.10;99.90
46482;DHT22;32193;51.446;6.792;2022-08-19T06:30:26;22.40;99.90
46482;DHT22;32193;51.446;6.792;2022-08-19T06:32:52;22.80;99.90
46482;DHT22;32193;51.446;6.792;2022-08-19T06:35:18;23.20;99.90
46482;DHT22;32193;51.446;6.792;2022-08-19T06:37:44;23.00;99.90
46482;DHT22;32193;51.446;6.792;2022-08-19T06:40:11;23.10;99.90
46482;DHT22;32193;51.446;6.792;2022-08-19T06:42:38;23.50;99.90
46482;DHT22;32193;51.446;6.792;2022-08-19T06:45:05;24.10;99.90
46482;DHT22;32193;51.446;6.792;2022-08-19T06:47:31;24.10;99.90
46482;DHT22;32193;51.446;6.792;2022-08-19T06:50:00;24.20;99.90
46482;DHT22;32193;51.446;6.792;2022-08-19T06:52:32;24.30;99.90
46482;DHT22;32193;51.446;6.792;2022-08-19T06:54:59;24.30;99.90
46482;DHT22;32193;51.446;6.792;2022-08-19T06:57:26;24.10;99.90
46482;DHT22;32193;51.446;6.792;2022-08-19T06:59:51;23.80;99.90
46482;DHT22;32193;51.446;6.792;2022-08-19T07:02:18;23.70;99.90
46482;DHT22;32193;51.446;6.792;2022-08-19T07:04:43;23.60;99.90
46482;DHT22;32193;51.446;6.792;2022-08-19T07:07:13;23.60;99.90
46482;DHT22;32193;51.446;6.792;2022-08-19T07:09:42;23.70;99.90
46482;DHT22;32193;51.446;6.792;2022-08-19T07:12:11;23.90;99.90
46482;DHT22;32193;51.446;6.792;2022-08-19T07:14:38;24.20;99.90
46482;DHT22;32193;51.446;6.792;2022-08-19T07:17:07;24.20;99.90
46482;DHT22;32193;51.446;6.792;2022-08-19T07:19:33;24.30;99.90
46482;DHT22;32193;51.446;6.792;2022-08-19T07:22:01;24.40;99.90
46482;DHT22;32193;51.446;6.792;2022-08-19T07:24:28;24.40;99.90
46482;DHT22;32193;51.446;6.792;2022-08-19T07:26:57;24.30;99.90
46482;DHT22;32193;51.446;6.792;2022-08-19T07:29:27;24.30;99.90
46482;DHT22;32193;51.446;6.792;2022-08-19T07:31:54;24.40;99.90
46482;DHT22;32193;51.446;6.792;2022-08-19T07:34:25;24.60;99.90
46482;DHT22;32193;51.446;6.792;2022-08-19T07:36:52;24.90;99.90
46482;DHT22;32193;51.446;6.792;2022-08-19T07:39:25;25.00;99.90
46482;DHT22;32193;51.446;6.792;2022-08-19T07:41:52;24.90;99.90
46482;DHT22;32193;51.446;6.792;2022-08-19T07:44:18;24.80;99.90
46482;DHT22;32193;51.446;6.792;2022-08-19T07:46:52;24.80;99.90
46482;DHT22;32193;51.446;6.792;2022-08-19T07:49:18;24.90;99.90
46482;DHT22;32193;51.446;6.792;2022-08-19T07:52:02;25.00;99.90
46482;DHT22;32193;51.446;6.792;2022-08-19T07:54:30;25.20;99.90
46482;DHT22;32193;51.446;6.792;2022-08-19T07:56:57;25.20;99.90
46482;DHT22;32193;51.446;6.792;2022-08-19T07:59:24;25.20;99.90
46482;DHT22;32193;51.446;6.792;2022-08-19T08:01:50;25.30;99.90
46482;DHT22;32193;51.446;6.792;2022-08-19T08:04:17;25.50;99.90
46482;DHT22;32193;51.446;6.792;2022-08-19T08:07:02;25.50;99.90
46482;DHT22;32193;51.446;6.792;2022-08-19T08:09:46;25.50;99.90
46482;DHT22;32193;51.446;6.792;2022-08-19T08:12:18;25.30;99.90
46482;DHT22;32193;51.446;6.792;2022-08-19T08:14:49;25.70;99.90
46482;DHT22;32193;51.446;6.792;2022-08-19T08:17:16;26.10;99.90
46482;DHT22;32193;51.446;6.792;2022-08-19T08:19:43;26.70;99.90
46482;DHT22;32193;51.446;6.792;2022-08-19T08:22:10;26.70;99.90
46482;DHT22;32193;51.446;6.792;2022-08-19T08:25:03;26.70;99.90
46482;DHT22;32193;51.446;6.792;2022-08-19T08:27:29;26.40;99.90
46482;DHT22;32193;51.446;6.792;2022-08-19T08:29:56;26.00;99.90
46482;DHT22;32193;51.446;6.792;2022-08-19T08:32:22;26.00;99.90
46482;DHT22;32193;51.446;6.792;2022-08-19T08:34:48;25.70;99.90
46482;DHT22;32193;51.446;6.792;2022-08-19T08:37:14;25.50;99.90
46482;DHT22;32193;51.446;6.792;2022-08-19T08:39:39;25.50;99.90
46482;DHT22;32193;51.446;6.792;2022-08-19T08:42:19;25.20;99.90
46482;DHT22;32193;51.446;6.792;2022-08-19T08:45:12;25.50;99.90
46482;DHT22;32193;51.446;6.792;2022-08-19T08:47:44;25.50;99.90
46482;DHT22;32193;51.446;6.792;2022-08-19T08:50:21;25.50;99.90
46482;DHT22;32193;51.446;6.792;2022-08-19T08:52:52;25.30;99.90
46482;DHT22;32193;51.446;6.792;2022-08-19T08:55:23;25.30;99.90
46482;DHT22;32193;51.446;6.792;2022-08-19T09:02:55;25.80;99.90
46482;DHT22;32193;51.446;6.792;2022-08-19T09:05:24;26.10;99.90
46482;DHT22;32193;51.446;6.792;2022-08-19T09:08:22;26.30;99.90
46482;DHT22;32193;51.446;6.792;2022-08-19T09:10:53;26.30;99.90
46482;DHT22;32193;51.446;6.792;2022-08-19T09:13:36;26.40;99.90
46482;DHT22;32193;51.446;6.792;2022-08-19T09:16:13;26.70;99.90
46482;DHT22;32193;51.446;6.792;2022-08-19T09:18:46;26.70;99.90
46482;DHT22;32193;51.446;6.792;2022-08-19T09:21:13;26.70;99.90
46482;DHT22;32193;51.446;6.792;2022-08-19T09:23:39;26.70;99.90
46482;DHT22;32193;51.446;6.792;2022-08-19T09:26:10;26.70;99.90
46482;DHT22;32193;51.446;6.792;2022-08-19T09:28:39;26.40;99.90
46482;DHT22;32193;51.446;6.792;2022-08-19T09:31:12;26.70;99.90
46482;DHT22;32193;51.446;6.792;2022-08-19T09:33:38;26.90;99.90
46482;DHT22;32193;51.446;6.792;2022-08-19T09:36:06;27.00;99.90
46482;DHT22;32193;51.446;6.792;2022-08-19T09:38:33;27.10;99.90
46482;DHT22;32193;51.446;6.792;2022-08-19T09:41:09;27.20;99.90
46482;DHT22;32193;51.446;6.792;2022-08-19T09:43:39;27.10;99.90
46482;DHT22;32193;51.446;6.792;2022-08-19T09:46:06;26.80;99.90
46482;DHT22;32193;51.446;6.792;2022-08-19T09:48:33;26.70;99.90
46482;DHT22;32193;51.446;6.792;2022-08-19T09:51:07;26.80;99.90
46482;DHT22;32193;51.446;6.792;2022-08-19T09:53:34;26.50;99.90
46482;DHT22;32193;51.446;6.792;2022-08-19T09:56:00;26.50;99.90
46482;DHT22;32193;51.446;6.792;2022-08-19T09:58:26;26.30;99.90
46482;DHT22;32193;51.446;6.792;2022-08-19T10:00:57;26.20;99.90
46482;DHT22;32193;51.446;6.792;2022-08-19T10:03:24;26.00;99.90
46482;DHT22;32193;51.446;6.792;2022-08-19T10:05:50;26.30;99.90
46482;DHT22;32193;51.446;6.792;2022-08-19T10:08:18;26.30;99.90
46482;DHT22;32193;51.446;6.792;2022-08-19T10:10:45;26.30;99.90
46482;DHT22;32193;51.446;6.792;2022-08-19T10:13:12;26.50;99.90
46482;DHT22;32193;51.446;6.792;2022-08-19T10:15:38;26.90;99.90
46482;DHT22;32193;51.446;6.792;2022-08-19T10:18:07;27.10;99.90
46482;DHT22;32193;51.446;6.792;2022-08-19T10:20:33;27.20;99.90
46482;DHT22;32193;51.446;6.792;2022-08-19T10:23:01;27.40;99.90
46482;DHT22;32193;51.446;6.792;2022-08-19T10:25:27;27.30;99.90
46482;DHT22;32193;51.446;6.792;2022-08-19T10:27:53;27.20;99.90
46482;DHT22;32193;51.446;6.792;2022-08-19T10:30:19;27.10;99.90
46482;DHT22;32193;51.446;6.792;2022-08-19T10:32:45;27.20;99.90
46482;DHT22;32193;51.446;6.792;2022-08-19T10:35:12;27.20;99.90
46482;DHT22;32193;51.446;6.792;2022-08-19T10:37:38;27.10;99.90
46482;DHT22;32193;51.446;6.792;2022-08-19T10:40:08;27.10;99.90
46482;DHT22;32193;51.446;6.792;2022-08-19T10:42:36;27.20;99.90
46482;DHT22;32193;51.446;6.792;2022-08-19T10:45:03;27.30;99.90
46482;DHT22;32193;51.446;6.792;2022-08-19T10:47:31;27.40;99.90
46482;DHT22;32193;51.446;6.792;2022-08-19T10:49:57;27.30;99.90
46482;DHT22;32193;51.446;6.792;2022-08-19T10:52:47;27.40;99.90
46482;DHT22;32193;51.446;6.792;2022-08-19T10:55:13;27.40;99.90
46482;DHT22;32193;51.446;6.792;2022-08-19T10:57:57;27.60;99.90
46482;DHT22;32193;51.446;6.792;2022-08-19T11:00:24;27.20;99.90
46482;DHT22;32193;51.446;6.792;2022-08-19T11:02:51;26.90;99.90
46482;DHT22;32193;51.446;6.792;2022-08-19T11:05:18;26.90;99.90
46482;DHT22;32193;51.446;6.792;2022-08-19T11:07:44;27.00;99.90
46482;DHT22;32193;51.446;6.792;2022-08-19T11:10:13;27.30;99.90
46482;DHT22;32193;51.446;6.792;2022-08-19T11:12:40;27.30;99.90
46482;DHT22;32193;51.446;6.792;2022-08-19T11:15:07;27.60;99.90
46482;DHT22;32193;51.446;6.792;2022-08-19T11:17:38;27.50;99.90
46482;DHT22;32193;51.446;6.792;2022-08-19T11:20:09;27.20;99.90
46482;DHT22;32193;51.446;6.792;2022-08-19T11:22:35;27.20;99.90
46482;DHT22;32193;51.446;6.792;2022-08-19T11:25:00;27.00;99.90
46482;DHT22;32193;51.446;6.792;2022-08-19T11:27:27;26.80;99.90
46482;DHT22;32193;51.446;6.792;2022-08-19T11:29:54;26.90;99.90
46482;DHT22;32193;51.446;6.792;2022-08-19T11:32:19;27.10;99.90
46482;DHT22;32193;51.446;6.792;2022-08-19T11:34:45;27.20;99.90
46482;DHT22;32193;51.446;6.792;2022-08-19T11:37:11;27.30;99.90
46482;DHT22;32193;51.446;6.792;2022-08-19T11:39:36;27.40;99.90
46482;DHT22;32193;51.446;6.792;2022-08-19T11:42:05;27.50;99.90
46482;DHT22;32193;51.446;6.792;2022-08-19T11:44:49;27.30;99.90
46482;DHT22;32193;51.446;6.792;2022-08-19T11:47:15;26.90;99.90
46482;DHT22;32193;51.446;6.792;2022-08-19T11:49:41;26.80;99.90
46482;DHT22;32193;51.446;6.792;2022-08-19T11:52:08;27.00;99.90
46482;DHT22;32193;51.446;6.792;2022-08-19T11:54:34;27.20;99.90
46482;DHT22;32193;51.446;6.792;2022-08-19T11:57:02;27.40;99.90
46482;DHT22;32193;51.446;6.792;2022-08-19T11:59:28;27.70;99.90
46482;DHT22;32193;51.446;6.792;2022-08-19T12:01:54;27.80;99.90
46482;DHT22;32193;51.446;6.792;2022-08-19T12:04:21;28.10;99.90
46482;DHT22;32193;51.446;6.792;2022-08-19T12:06:47;28.20;99.90
46482;DHT22;32193;51.446;6.792;2022-08-19T12:09:13;28.10;99.90
46482;DHT22;32193;51.446;6.792;2022-08-19T12:11:41;28.00;99.90
46482;DHT22;32193;51.446;6.792;2022-08-19T12:14:09;28.10;99.90
46482;DHT22;32193;51.446;6.792;2022-08-19T12:16:34;28.20;99.90
46482;DHT22;32193;51.446;6.792;2022-08-19T12:19:01;28.10;99.90
46482;DHT22;32193;51.446;6.792;2022-08-19T12:21:30;28.10;99.90
46482;DHT22;32193;51.446;6.792;2022-08-19T12:23:58;28.00;99.90
46482;DHT22;32193;51.446;6.792;2022-08-19T12:26:26;27.90;99.90
46482;DHT22;32193;51.446;6.792;2022-08-19T12:28:52;27.70;99.90
46482;DHT22;32193;51.446;6.792;2022-08-19T12:31:18;27.30;99.90
46482;DHT22;32193;51.446;6.792;2022-08-19T12:33:45;27.50;99.90
46482;DHT22;32193;51.446;6.792;2022-08-19T12:36:13;27.60;99.90
46482;DHT22;32193;51.446;6.792;2022-08-19T12:38:39;27.60;99.90
46482;DHT22;32193;51.446;6.792;2022-08-19T12:41:06;27.40;99.90
46482;DHT22;32193;51.446;6.792;2022-08-19T12:43:35;27.30;99.90
46482;DHT22;32193;51.446;6.792;2022-08-19T12:46:03;27.60;99.90
46482;DHT22;32193;51.446;6.792;2022-08-19T12:48:30;27.90;99.90
46482;DHT22;32193;51.446;6.792;2022-08-19T12:50:56;28.10;99.70
46482;DHT22;32193;51.446;6.792;2022-08-19T12:53:22;28.10;99.20
46482;DHT22;32193;51.446;6.792;2022-08-19T12:55:53;28.10;99.10
46482;DHT22;32193;51.446;6.792;2022-08-19T12:58:20;28.20;98.80
46482;DHT22;32193;51.446;6.792;2022-08-19T13:00:46;28.30;99.00
46482;DHT22;32193;51.446;6.792;2022-08-19T13:03:11;28.40;98.60
46482;DHT22;32193;51.446;6.792;2022-08-19T13:05:37;28.50;98.60
46482;DHT22;32193;51.446;6.792;2022-08-19T13:08:03;28.50;97.80
46482;DHT22;32193;51.446;6.792;2022-08-19T13:10:31;28.10;98.40
46482;DHT22;32193;51.446;6.792;2022-08-19T13:13:03;28.10;98.60
46482;DHT22;32193;51.446;6.792;2022-08-19T13:15:33;28.20;98.50
46482;DHT22;32193;51.446;6.792;2022-08-19T13:18:00;28.40;98.40
46482;DHT22;32193;51.446;6.792;2022-08-19T13:20:26;28.40;97.50
46482;DHT22;32193;51.446;6.792;2022-08-19T13:22:51;28.20;97.60
46482;DHT22;32193;51.446;6.792;2022-08-19T13:25:18;28.10;98.80
46482;DHT22;32193;51.446;6.792;2022-08-19T13:27:45;28.20;98.60
46482;DHT22;32193;51.446;6.792;2022-08-19T13:30:13;28.20;98.70
46482;DHT22;32193;51.446;6.792;2022-08-19T13:32:58;28.20;98.30
46482;DHT22;32193;51.446;6.792;2022-08-19T13:35:37;28.20;98.30
46482;DHT22;32193;51.446;6.792;2022-08-19T13:38:03;28.20;98.10
46482;DHT22;32193;51.446;6.792;2022-08-19T13:40:31;28.20;98.50
46482;DHT22;32193;51.446;6.792;2022-08-19T13:43:00;28.10;98.30
46482;DHT22;32193;51.446;6.792;2022-08-19T13:45:27;28.10;98.30
46482;DHT22;32193;51.446;6.792;2022-08-19T13:47:56;27.90;98.70
46482;DHT22;32193;51.446;6.792;2022-08-19T13:50:24;28.00;98.90
46482;DHT22;32193;51.446;6.792;2022-08-19T13:52:51;28.10;98.80
46482;DHT22;32193;51.446;6.792;2022-08-19T13:55:17;28.20;98.40
46482;DHT22;32193;51.446;6.792;2022-08-19T13:57:43;28.20;98.30
46482;DHT22;32193;51.446;6.792;2022-08-19T14:00:12;28.20;98.20
46482;DHT22;32193;51.446;6.792;2022-08-19T14:02:39;28.30;97.90
46482;DHT22;32193;51.446;6.792;2022-08-19T14:05:07;28.30;97.80
46482;DHT22;32193;51.446;6.792;2022-08-19T14:07:33;28.30;98.00
46482;DHT22;32193;51.446;6.792;2022-08-19T14:09:58;28.20;98.00
46482;DHT22;32193;51.446;6.792;2022-08-19T14:12:24;28.30;98.20
46482;DHT22;32193;51.446;6.792;2022-08-19T14:14:50;28.30;98.40
46482;DHT22;32193;51.446;6.792;2022-08-19T14:17:16;28.30;98.20
46482;DHT22;32193;51.446;6.792;2022-08-19T14:19:42;28.30;98.50
46482;DHT22;32193;51.446;6.792;2022-08-19T14:22:08;28.20;98.20
46482;DHT22;32193;51.446;6.792;2022-08-19T14:24:34;28.20;98.40
46482;DHT22;32193;51.446;6.792;2022-08-19T14:27:01;28.30;98.40
46482;DHT22;32193;51.446;6.792;2022-08-19T14:29:28;28.30;98.90
46482;DHT22;32193;51.446;6.792;2022-08-19T14:31:54;28.30;99.30
46482;DHT22;32193;51.446;6.792;2022-08-19T14:34:22;28.20;99.60
46482;DHT22;32193;51.446;6.792;2022-08-19T14:36:48;28.20;99.20
46482;DHT22;32193;51.446;6.792;2022-08-19T14:39:13;28.30;99.20
46482;DHT22;32193;51.446;6.792;2022-08-19T14:41:41;28.20;99.40
46482;DHT22;32193;51.446;6.792;2022-08-19T14:44:11;28.20;99.90
46482;DHT22;32193;51.446;6.792;2022-08-19T14:46:38;28.20;99.10
46482;DHT22;32193;51.446;6.792;2022-08-19T14:49:05;28.10;98.70
46482;DHT22;32193;51.446;6.792;2022-08-19T14:51:30;28.10;98.70
46482;DHT22;32193;51.446;6.792;2022-08-19T14:53:56;28.10;98.90
46482;DHT22;32193;51.446;6.792;2022-08-19T14:56:25;27.90;98.00
46482;DHT22;32193;51.446;6.792;2022-08-19T14:58:51;27.90;98.00
46482;DHT22;32193;51.446;6.792;2022-08-19T15:01:18;27.90;97.60
46482;DHT22;32193;51.446;6.792;2022-08-19T15:03:46;27.80;98.00
46482;DHT22;32193;51.446;6.792;2022-08-19T15:06:11;28.00;97.80
46482;DHT22;32193;51.446;6.792;2022-08-19T15:08:39;28.10;96.80
46482;DHT22;32193;51.446;6.792;2022-08-19T15:11:14;28.10;96.20
46482;DHT22;32193;51.446;6.792;2022-08-19T15:13:42;28.00;95.90
46482;DHT22;32193;51.446;6.792;2022-08-19T15:16:08;28.10;96.00
46482;DHT22;32193;51.446;6.792;2022-08-19T15:18:34;28.10;95.70
46482;DHT22;32193;51.446;6.792;2022-08-19T15:21:01;28.00;95.50
46482;DHT22;32193;51.446;6.792;2022-08-19T15:23:27;28.10;95.50
46482;DHT22;32193;51.446;6.792;2022-08-19T15:25:53;28.10;95.90
46482;DHT22;32193;51.446;6.792;2022-08-19T15:28:24;27.90;96.90
46482;DHT22;32193;51.446;6.792;2022-08-19T15:30:50;27.70;97.70
46482;DHT22;32193;51.446;6.792;2022-08-19T15:33:16;27.60;97.90
46482;DHT22;32193;51.446;6.792;2022-08-19T15:35:43;27.80;97.80
46482;DHT22;32193;51.446;6.792;2022-08-19T15:38:09;27.80;97.60
46482;DHT22;32193;51.446;6.792;2022-08-19T15:40:38;27.90;97.90